Time;durP1;ratioP1;P1;durP2;ratioP2;P2;SDS_P1;SDS_P2;PMS_P1;PMS_P2;Temp;Humidity;BMP_temperature;BMP_pressure;BME280_temperature;BME280_humidity;BME280_pressure;Samples;Min_cycle;Max_cycle;Signal;HPM_P1;HPM_P2
2021/04/30 00:00:29;;;;;;;7.18;3.47;;;;;;;8.80;56.95;99384.16;2207995;40;20307;-76
2021/04/30 00:02:01;;;;;;;6.07;3.83;;;;;;;8.78;57.27;99386.16;2214354;40;20045;-78
2021/04/30 00:03:32;;;;;;;5.38;3.55;;;;;;;8.75;57.25;99386.47;2216337;40;20030;-77
2021/04/30 00:05:05;;;;;;;7.00;3.72;;;;;;;8.72;57.50;99387.59;2213976;39;20037;-78
2021/04/30 00:06:36;;;;;;;4.90;3.50;;;;;;;8.69;57.44;99389.72;2214396;40;20044;-78
2021/04/30 00:08:08;;;;;;;6.60;3.85;;;;;;;8.66;57.76;99398.00;2215855;40;20060;-78
2021/04/30 00:09:40;;;;;;;5.07;3.58;;;;;;;8.60;57.81;99398.59;2212563;40;20040;-78
2021/04/30 00:11:11;;;;;;;6.50;3.78;;;;;;;8.57;57.95;99389.91;2203636;40;20089;-76
2021/04/30 00:12:42;;;;;;;6.07;3.83;;;;;;;8.62;58.13;99388.63;2214740;40;20411;-78
2021/04/30 00:14:14;;;;;;;5.15;3.13;;;;;;;8.62;58.26;99388.63;2217087;40;20053;-78
2021/04/30 00:15:45;;;;;;;6.68;3.38;;;;;;;8.66;58.05;99393.50;2215457;40;20029;-79
2021/04/30 00:17:18;;;;;;;4.72;2.75;;;;;;;8.71;57.59;99390.38;2182985;40;21289;-78
2021/04/30 00:18:49;;;;;;;6.10;3.72;;;;;;;8.71;57.87;99385.91;2200487;40;21297;-77
2021/04/30 00:20:20;;;;;;;6.60;4.20;;;;;;;8.69;57.89;99387.88;2202432;40;20038;-78
2021/04/30 00:21:51;;;;;;;7.28;4.55;;;;;;;8.61;58.13;99393.13;2202312;40;20330;-77
2021/04/30 00:23:26;;;;;;;8.25;4.50;;;;;;;8.47;58.55;99401.56;2191727;40;20043;-78
2021/04/30 00:24:57;;;;;;;6.18;4.03;;;;;;;8.36;58.97;99394.59;2188687;40;20055;-78
2021/04/30 00:26:29;;;;;;;7.13;3.97;;;;;;;8.33;59.03;99386.91;2161675;40;20094;-78
2021/04/30 00:28:00;;;;;;;5.80;3.63;;;;;;;8.33;58.96;99378.91;2190225;40;20479;-78
2021/04/30 00:29:31;;;;;;;5.65;3.90;;;;;;;8.36;58.76;99376.78;2203798;40;20123;-78
2021/04/30 00:31:03;;;;;;;5.47;3.00;;;;;;;8.43;58.49;99369.06;2213794;40;20034;-77
2021/04/30 00:32:35;;;;;;;7.47;3.67;;;;;;;8.45;58.48;99379.56;2197844;40;20165;-77
2021/04/30 00:34:06;;;;;;;4.70;3.10;;;;;;;8.41;58.45;99373.69;2205424;40;20150;-78
2021/04/30 00:35:38;;;;;;;4.93;3.03;;;;;;;8.45;58.32;99375.06;2191956;40;20047;-77
2021/04/30 00:37:09;;;;;;;4.20;2.58;;;;;;;8.54;58.02;99379.56;2201404;40;20050;-77
2021/04/30 00:38:40;;;;;;;6.25;4.40;;;;;;;8.54;57.65;99374.22;2209232;40;20697;-77
2021/04/30 00:40:12;;;;;;;7.68;4.93;;;;;;;8.43;58.18;99377.91;2203148;40;20037;-78
2021/04/30 00:41:43;;;;;;;6.00;3.97;;;;;;;8.36;58.33;99383.94;2190838;40;20049;-78
2021/04/30 00:43:15;;;;;;;8.38;4.90;;;;;;;8.24;58.87;99389.44;2203339;40;20077;-77
2021/04/30 00:44:47;;;;;;;8.85;4.22;;;;;;;8.18;59.04;99395.38;2198928;40;20029;-78
2021/04/30 00:46:18;;;;;;;6.15;4.72;;;;;;;8.11;59.28;99394.28;2220791;40;20041;-77
2021/04/30 00:47:51;;;;;;;7.30;4.78;;;;;;;8.10;59.50;99389.94;2218979;40;20033;-77
2021/04/30 00:49:23;;;;;;;8.82;5.07;;;;;;;8.06;59.13;99397.38;2217848;40;20041;-77
2021/04/30 00:50:54;;;;;;;8.00;5.03;;;;;;;8.06;59.55;99397.38;2215465;40;20388;-77
2021/04/30 00:52:25;;;;;;;6.70;4.63;;;;;;;8.07;59.69;99398.19;2210881;40;20140;-76
2021/04/30 00:53:57;;;;;;;7.90;4.50;;;;;;;8.04;59.73;99396.69;2208826;40;20037;-77
2021/04/30 00:55:28;;;;;;;6.93;4.72;;;;;;;8.04;59.96;99398.47;2208345;40;20056;-77
2021/04/30 00:56:59;;;;;;;8.07;5.05;;;;;;;8.01;59.88;99401.44;2210722;40;20026;-77
2021/04/30 00:58:31;;;;;;;9.07;5.10;;;;;;;7.94;60.17;99402.00;2210286;40;20061;-77
2021/04/30 01:00:04;;;;;;;10.05;5.13;;;;;;;7.92;59.96;99417.31;2164407;40;20046;-77
2021/04/30 01:01:35;;;;;;;7.20;5.10;;;;;;;7.91;59.99;99402.31;2176251;40;20046;-77
2021/04/30 01:03:09;;;;;;;6.95;5.15;;;;;;;7.90;60.20;99407.75;2184467;40;20464;-78
2021/04/30 01:04:40;;;;;;;5.75;3.95;;;;;;;7.88;60.09;99412.41;2197233;40;20049;-77
2021/04/30 01:06:12;;;;;;;7.38;4.72;;;;;;;7.93;60.31;99407.47;2198679;40;20838;-78
2021/04/30 01:07:43;;;;;;;7.70;3.80;;;;;;;7.95;60.19;99405.53;2197185;40;20670;-79
2021/04/30 01:09:14;;;;;;;7.00;5.05;;;;;;;7.98;60.11;99405.25;2200169;40;20037;-78
2021/04/30 01:10:45;;;;;;;5.75;4.50;;;;;;;8.01;60.08;99404.94;2207284;40;20045;-77
2021/04/30 01:12:16;;;;;;;8.23;4.82;;;;;;;8.04;60.09;99403.81;2217178;40;20124;-78
2021/04/30 01:13:48;;;;;;;5.40;3.50;;;;;;;8.07;59.78;99406.19;2212125;40;20090;-78
2021/04/30 01:15:19;;;;;;;5.90;3.70;;;;;;;8.10;59.72;99409.41;2211075;40;20065;-78
2021/04/30 01:16:51;;;;;;;6.43;4.55;;;;;;;8.13;59.75;99410.91;2209869;40;20049;-79
2021/04/30 01:18:24;;;;;;;6.22;4.05;;;;;;;8.08;59.79;99415.84;2213527;40;20037;-78
2021/04/30 01:19:56;;;;;;;6.15;4.18;;;;;;;8.04;59.88;99422.44;2215106;40;20042;-78
2021/04/30 01:21:27;;;;;;;7.05;4.30;;;;;;;7.99;59.90;99411.41;2219473;40;20066;-78
2021/04/30 01:22:59;;;;;;;7.00;5.00;;;;;;;7.91;60.27;99418.28;2219965;40;20491;-79
2021/04/30 01:24:31;;;;;;;7.28;5.18;;;;;;;7.87;60.38;99418.72;2217787;40;20034;-78
2021/04/30 01:26:01;;;;;;;6.97;5.05;;;;;;;7.81;60.60;99425.44;2212769;40;20121;-78
2021/04/30 01:27:33;;;;;;;7.50;4.80;;;;;;;7.73;60.89;99422.66;2217649;40;20042;-78
2021/04/30 01:29:04;;;;;;;7.70;4.70;;;;;;;7.66;61.13;99427.69;2215344;40;20119;-78
2021/04/30 01:30:39;;;;;;;7.15;4.13;;;;;;;7.69;61.15;99424.75;2217039;40;20049;-78
2021/04/30 01:32:11;;;;;;;7.65;5.55;;;;;;;7.73;60.77;99417.31;2209659;40;20034;-77
2021/04/30 01:33:43;;;;;;;6.63;5.07;;;;;;;7.75;60.98;99424.19;2210519;40;20073;-78
2021/04/30 01:35:18;;;;;;;7.97;5.18;;;;;;;7.75;60.74;99426.84;2197604;40;20038;-78
2021/04/30 01:36:50;;;;;;;7.43;4.68;;;;;;;7.70;60.47;99423.75;2197265;40;20055;-78
2021/04/30 01:38:22;;;;;;;6.63;4.20;;;;;;;7.71;60.61;99430.75;2197276;40;20045;-78
2021/04/30 01:39:53;;;;;;;7.00;4.20;;;;;;;7.77;60.36;99427.56;2197717;40;20078;-78
2021/04/30 01:41:25;;;;;;;6.13;4.55;;;;;;;7.84;60.22;99421.66;2205073;40;20607;-78
2021/04/30 01:43:03;;;;;;;6.25;4.10;;;;;;;7.88;60.17;99420.41;2210076;40;20033;-77
2021/04/30 01:44:35;;;;;;;5.32;3.80;;;;;;;7.92;59.94;99419.97;2209139;40;20060;-78
2021/04/30 01:46:06;;;;;;;7.47;4.55;;;;;;;7.96;59.72;99420.50;2214493;40;20329;-78
2021/04/30 01:47:37;;;;;;;5.50;3.70;;;;;;;8.00;59.58;99418.41;2217156;40;20037;-78
2021/04/30 01:49:10;;;;;;;7.65;4.88;;;;;;;8.02;59.66;99416.44;2209542;40;20318;-78
2021/04/30 01:50:42;;;;;;;6.20;4.28;;;;;;;8.02;59.51;99421.78;2203488;40;20058;-78
2021/04/30 01:52:13;;;;;;;7.93;5.88;;;;;;;7.99;59.57;99422.88;2203718;40;20374;-78
2021/04/30 01:53:45;;;;;;;7.97;5.38;;;;;;;7.93;59.36;99423.44;2202515;40;20441;-78
2021/04/30 01:55:16;;;;;;;6.72;5.00;;;;;;;7.91;59.62;99428.94;2203415;40;20037;-78
2021/04/30 01:56:48;;;;;;;9.45;5.82;;;;;;;7.87;59.58;99435.50;2196742;40;20035;-78
2021/04/30 01:58:20;;;;;;;8.60;5.60;;;;;;;7.83;59.92;99427.94;2194461;40;20035;-77
2021/04/30 01:59:51;;;;;;;6.82;4.80;;;;;;;7.76;60.23;99425.00;2204445;40;20030;-77
2021/04/30 02:01:22;;;;;;;6.28;4.25;;;;;;;7.73;60.15;99418.16;2194254;40;20042;-78
2021/04/30 02:02:55;;;;;;;7.95;4.65;;;;;;;7.74;60.46;99424.34;2191334;40;20055;-77
2021/04/30 02:04:26;;;;;;;5.78;3.72;;;;;;;7.75;60.42;99428.66;2196696;40;20050;-78
2021/04/30 02:05:57;;;;;;;7.10;4.95;;;;;;;7.73;60.56;99423.47;2146200;41;20060;-77
2021/04/30 02:07:28;;;;;;;6.97;4.95;;;;;;;7.72;60.66;99415.66;2166902;41;20480;-78
2021/04/30 02:09:01;;;;;;;7.43;5.90;;;;;;;7.72;60.48;99428.94;2144484;41;20053;-77
2021/04/30 02:10:33;;;;;;;6.47;4.80;;;;;;;7.70;60.37;99428.25;2153471;41;20066;-77
2021/04/30 02:12:05;;;;;;;7.15;4.65;;;;;;;7.70;60.57;99428.25;2152368;41;20749;-77
2021/04/30 02:13:36;;;;;;;6.38;4.85;;;;;;;7.68;60.68;99420.41;2157607;41;20045;-77
2021/04/30 02:15:09;;;;;;;8.35;4.82;;;;;;;7.70;60.78;99428.25;2158754;41;20062;-77
2021/04/30 02:16:40;;;;;;;7.97;4.80;;;;;;;7.71;60.85;99440.56;2174589;40;20085;-76
2021/04/30 02:18:11;;;;;;;6.63;4.72;;;;;;;7.70;61.00;99433.56;2192441;40;20031;-76
2021/04/30 02:19:43;;;;;;;7.35;4.45;;;;;;;7.72;61.00;99434.28;2211344;40;20380;-76
2021/04/30 02:21:14;;;;;;;8.05;5.25;;;;;;;7.72;61.03;99431.63;2209284;40;20066;-77
2021/04/30 02:22:45;;;;;;;8.20;5.13;;;;;;;7.71;60.72;99432.59;2207320;40;20539;-77
2021/04/30 02:24:18;;;;;;;6.18;4.38;;;;;;;7.69;60.68;99424.75;2210636;40;20426;-76
2021/04/30 02:25:49;;;;;;;8.40;5.78;;;;;;;7.68;60.60;99427.53;2207280;40;20460;-77
2021/04/30 02:27:20;;;;;;;7.00;4.90;;;;;;;7.70;60.46;99428.25;2209243;40;20032;-76
2021/04/30 02:28:52;;;;;;;8.15;5.00;;;;;;;7.72;60.30;99431.63;2208685;40;20045;-76
2021/04/30 02:30:25;;;;;;;8.35;5.43;;;;;;;7.71;60.21;99440.56;2210195;40;20561;-77
2021/04/30 02:31:57;;;;;;;7.15;5.32;;;;;;;7.68;60.17;99438.19;2195684;40;20037;-77
2021/04/30 02:33:28;;;;;;;10.30;5.75;;;;;;;7.54;60.54;99436.78;2211060;40;20042;-77
2021/04/30 02:34:59;;;;;;;7.65;5.75;;;;;;;7.40;61.01;99443.38;2207080;40;20048;-78
2021/04/30 02:36:31;;;;;;;7.72;5.20;;;;;;;7.31;61.32;99442.41;2211098;40;20042;-77
2021/04/30 02:38:04;;;;;;;8.18;5.55;;;;;;;7.29;61.41;99442.50;2202606;40;20430;-77
2021/04/30 02:39:36;;;;;;;8.70;5.78;;;;;;;7.29;61.62;99442.50;2210426;40;20329;-78
2021/04/30 02:41:08;;;;;;;9.55;5.95;;;;;;;7.30;61.86;99448.69;2189888;40;20539;-77
2021/04/30 02:42:39;;;;;;;8.30;4.90;;;;;;;7.29;61.74;99450.50;2218293;40;20037;-78
2021/04/30 02:44:10;;;;;;;7.13;5.57;;;;;;;7.26;62.44;99450.78;2211764;40;20042;-77
2021/04/30 02:45:42;;;;;;;8.77;5.20;;;;;;;7.24;62.47;99452.72;2213605;40;20056;-77
2021/04/30 02:47:14;;;;;;;9.82;5.88;;;;;;;7.25;62.53;99449.09;2204029;40;20044;-77
2021/04/30 02:48:47;;;;;;;9.55;6.35;;;;;;;7.25;62.65;99435.81;2215088;40;20037;-77
2021/04/30 02:50:22;;;;;;;8.15;6.32;;;;;;;7.22;62.54;99438.72;2215085;40;20094;-77
2021/04/30 02:51:53;;;;;;;7.95;5.43;;;;;;;7.14;63.14;99441.25;2207454;40;20191;-78
2021/04/30 02:53:25;;;;;;;9.73;6.28;;;;;;;7.06;62.77;99441.91;2202767;40;20072;-77
2021/04/30 02:54:57;;;;;;;8.38;5.82;;;;;;;7.01;62.96;99445.00;2211969;40;20038;-77
2021/04/30 02:56:29;;;;;;;8.07;6.40;;;;;;;7.02;63.05;99432.56;2208190;40;20046;-77
2021/04/30 02:58:01;;;;;;;7.55;5.80;;;;;;;7.02;63.13;99433.38;2200744;40;20034;-78
2021/04/30 02:59:33;;;;;;;7.35;5.45;;;;;;;7.05;62.88;99434.09;2211983;40;20041;-78
2021/04/30 03:01:04;;;;;;;8.18;5.95;;;;;;;7.10;62.54;99431.84;2215096;40;20058;-77
2021/04/30 03:02:35;;;;;;;8.07;6.28;;;;;;;7.16;62.43;99431.31;2202309;40;20036;-78
2021/04/30 03:04:07;;;;;;;8.07;6.30;;;;;;;7.15;62.20;99435.78;2209319;40;20042;-77
2021/04/30 03:05:38;;;;;;;8.18;5.75;;;;;;;7.15;62.04;99440.28;2203751;40;20066;-77
2021/04/30 03:07:10;;;;;;;7.32;5.05;;;;;;;7.19;62.06;99444.31;2203249;40;20611;-78
2021/04/30 03:08:41;;;;;;;9.75;6.47;;;;;;;7.22;61.66;99444.06;2169659;40;20031;-78
2021/04/30 03:10:13;;;;;;;8.10;5.22;;;;;;;7.15;61.85;99441.09;2201367;40;20026;-77
2021/04/30 03:11:44;;;;;;;8.57;5.80;;;;;;;7.13;61.98;99444.88;2206274;40;20025;-77
2021/04/30 03:13:16;;;;;;;9.80;6.30;;;;;;;7.13;62.03;99439.56;2212784;40;20049;-77
2021/04/30 03:14:46;;;;;;;8.65;6.05;;;;;;;7.14;62.01;99438.59;2203328;40;20079;-77
2021/04/30 03:16:18;;;;;;;8.48;6.53;;;;;;;7.17;62.17;99438.31;2209871;40;20188;-77
2021/04/30 03:17:49;;;;;;;8.25;6.00;;;;;;;7.20;62.11;99445.16;2214106;40;20045;-77
2021/04/30 03:19:21;;;;;;;9.75;6.43;;;;;;;7.18;62.12;99437.31;2211223;40;20389;-77
2021/04/30 03:20:52;;;;;;;9.48;6.30;;;;;;;7.16;62.42;99441.94;2212729;40;20503;-77
2021/04/30 03:22:23;;;;;;;9.30;6.68;;;;;;;7.17;62.50;99439.16;2209110;40;20052;-77
2021/04/30 03:23:54;;;;;;;8.52;5.47;;;;;;;7.20;62.46;99440.69;2173482;40;20038;-77
2021/04/30 03:25:27;;;;;;;8.50;6.10;;;;;;;7.20;62.51;99443.34;2215134;40;20034;-77
2021/04/30 03:26:57;;;;;;;12.85;6.35;;;;;;;7.21;62.63;99453.00;2206676;40;20053;-77
2021/04/30 03:28:29;;;;;;;8.73;6.05;;;;;;;7.20;62.72;99443.34;2208221;40;20056;-78
2021/04/30 03:30:01;;;;;;;10.60;6.63;;;;;;;7.17;62.52;99440.97;2209116;40;20046;-77
2021/04/30 03:31:32;;;;;;;9.88;6.90;;;;;;;7.17;62.46;99438.31;2211077;40;21133;-77
2021/04/30 03:33:04;;;;;;;7.78;5.78;;;;;;;7.14;62.28;99438.59;2166174;40;20033;-77
2021/04/30 03:34:36;;;;;;;8.70;6.00;;;;;;;7.16;62.28;99436.63;2210342;40;20033;-77
2021/04/30 03:36:07;;;;;;;11.45;6.80;;;;;;;7.15;62.11;99435.78;2209594;40;20041;-78
2021/04/30 03:37:39;;;;;;;7.13;5.22;;;;;;;7.17;62.24;99433.00;2208634;40;20046;-78
2021/04/30 03:39:10;;;;;;;8.50;6.95;;;;;;;7.17;62.12;99438.31;2210479;40;20120;-77
2021/04/30 03:40:42;;;;;;;7.20;5.28;;;;;;;7.20;61.70;99440.69;2208390;40;20069;-78
2021/04/30 03:42:14;;;;;;;7.10;4.93;;;;;;;7.21;61.92;99437.03;2210129;40;20034;-78
2021/04/30 03:43:45;;;;;;;7.97;4.90;;;;;;;7.24;61.77;99434.13;2208393;40;20113;-77
2021/04/30 03:45:17;;;;;;;6.57;4.90;;;;;;;7.25;61.68;99427.84;2209502;40;20139;-77
2021/04/30 03:46:49;;;;;;;8.18;5.95;;;;;;;7.27;61.65;99430.34;2208989;40;20057;-77
2021/04/30 03:48:24;;;;;;;8.52;6.18;;;;;;;7.26;61.43;99424.19;2210496;40;20033;-78
2021/04/30 03:49:56;;;;;;;8.55;6.78;;;;;;;7.23;61.71;99421.81;2214990;40;20075;-77
2021/04/30 03:51:27;;;;;;;10.40;7.13;;;;;;;7.24;61.61;99434.13;2214900;40;20038;-78
2021/04/30 03:52:59;;;;;;;9.30;6.60;;;;;;;7.24;61.58;99436.78;2210101;40;20053;-78
2021/04/30 03:54:31;;;;;;;9.25;6.55;;;;;;;7.22;61.86;99444.06;2220767;40;20040;-78
2021/04/30 03:56:03;;;;;;;9.85;7.53;;;;;;;7.20;61.70;99446.00;2212998;40;20346;-77
2021/04/30 03:57:35;;;;;;;8.02;6.45;;;;;;;7.17;61.97;99449.78;2213780;40;20040;-78
2021/04/30 03:59:06;;;;;;;8.68;6.85;;;;;;;7.17;61.76;99444.47;2216181;40;20045;-77
2021/04/30 04:00:37;;;;;;;7.88;5.78;;;;;;;7.18;62.18;99450.59;2212713;40;20038;-77
2021/04/30 04:02:08;;;;;;;8.93;6.47;;;;;;;7.17;62.21;99454.28;2212204;40;20048;-77
2021/04/30 04:03:39;;;;;;;8.65;6.15;;;;;;;7.15;62.30;99450.91;2213125;40;20061;-77
2021/04/30 04:05:11;;;;;;;9.45;6.57;;;;;;;7.09;62.57;99452.28;2208719;40;20045;-77
2021/04/30 04:06:42;;;;;;;9.00;7.18;;;;;;;7.02;62.77;99451.16;2210577;40;20385;-77
2021/04/30 04:08:14;;;;;;;8.40;6.20;;;;;;;6.99;63.04;99446.94;2190012;40;20342;-77
2021/04/30 04:09:45;;;;;;;9.50;5.53;;;;;;;6.98;63.07;99444.41;2210785;40;20053;-77
2021/04/30 04:11:16;;;;;;;9.10;6.45;;;;;;;6.94;63.31;99441.19;2209142;40;20038;-77
2021/04/30 04:12:48;;;;;;;9.65;7.20;;;;;;;6.92;63.79;99445.81;2211228;40;20041;-77
2021/04/30 04:14:19;;;;;;;10.93;7.78;;;;;;;6.88;64.04;99436.44;2213555;40;20064;-77
2021/04/30 04:15:52;;;;;;;8.70;6.30;;;;;;;6.84;64.28;99438.53;2206681;40;20050;-77
2021/04/30 04:17:23;;;;;;;10.35;7.55;;;;;;;6.84;64.23;99433.22;2192704;40;20049;-77
2021/04/30 04:18:54;;;;;;;8.57;6.32;;;;;;;6.85;64.09;99436.69;2212197;40;20389;-77
2021/04/30 04:20:26;;;;;;;13.45;7.72;;;;;;;6.84;64.23;99437.69;2208523;40;20329;-77
2021/04/30 04:21:57;;;;;;;7.53;5.78;;;;;;;6.83;64.28;99436.84;2217479;40;20475;-78
2021/04/30 04:23:28;;;;;;;9.60;7.13;;;;;;;6.85;64.24;99440.19;2216504;40;20049;-78
2021/04/30 04:25:00;;;;;;;10.57;7.78;;;;;;;6.81;64.31;99437.94;2217999;40;20040;-78
2021/04/30 04:26:32;;;;;;;9.43;6.82;;;;;;;6.67;64.60;99437.34;2217242;40;20091;-77
2021/04/30 04:28:03;;;;;;;9.60;7.20;;;;;;;6.60;64.75;99436.22;2222456;40;20036;-77
2021/04/30 04:29:34;;;;;;;11.25;7.72;;;;;;;6.56;64.84;99429.47;2211859;40;20034;-78
2021/04/30 04:31:06;;;;;;;10.35;7.38;;;;;;;6.43;64.85;99439.47;2204801;40;20150;-77
2021/04/30 04:32:36;;;;;;;10.43;8.30;;;;;;;6.37;65.20;99436.38;2165042;40;20085;-78
2021/04/30 04:34:08;;;;;;;10.45;7.97;;;;;;;6.36;65.39;99444.50;2229748;40;20367;-78
2021/04/30 04:35:39;;;;;;;9.57;7.22;;;;;;;6.45;65.14;99445.50;2213077;40;20039;-78
2021/04/30 04:37:10;;;;;;;10.75;5.72;;;;;;;6.50;65.12;99445.97;2221576;40;20068;-78
2021/04/30 04:38:42;;;;;;;8.75;5.65;;;;;;;6.59;64.83;99452.25;2218299;40;20045;-78
2021/04/30 04:40:15;;;;;;;10.57;7.00;;;;;;;6.65;64.52;99447.25;2209530;40;20106;-77
2021/04/30 04:41:47;;;;;;;10.23;6.38;;;;;;;6.69;64.84;99446.03;2205101;40;20061;-78
2021/04/30 04:43:18;;;;;;;9.93;7.85;;;;;;;6.74;64.31;99442.13;2208977;40;20516;-77
2021/04/30 04:44:50;;;;;;;10.88;7.97;;;;;;;6.73;64.27;99449.25;2185580;40;20045;-77
2021/04/30 04:46:21;;;;;;;13.63;9.02;;;;;;;6.76;64.17;99450.81;2203641;40;20042;-78
2021/04/30 04:47:52;;;;;;;11.10;7.25;;;;;;;6.77;64.08;99458.63;2192093;40;20602;-78
2021/04/30 04:49:23;;;;;;;11.95;7.95;;;;;;;6.76;63.98;99469.41;2179479;40;20063;-77
2021/04/30 04:50:54;;;;;;;11.70;7.80;;;;;;;6.77;64.08;99466.59;2173388;41;20056;-77
2021/04/30 04:52:25;;;;;;;10.23;7.40;;;;;;;6.80;64.10;99469.00;2173293;41;20040;-78
2021/04/30 04:53:56;;;;;;;9.95;7.05;;;;;;;6.87;63.73;99474.63;2171838;41;20063;-78
2021/04/30 04:55:28;;;;;;;9.82;7.68;;;;;;;6.92;63.84;99468.91;2173751;41;20029;-78
2021/04/30 04:57:00;;;;;;;9.65;5.93;;;;;;;6.95;64.00;99465.94;2121302;41;20798;-77
2021/04/30 04:58:31;;;;;;;13.60;8.15;;;;;;;6.97;64.31;99480.81;2157969;41;20037;-78
2021/04/30 05:00:03;;;;;;;15.23;9.15;;;;;;;6.98;64.22;99471.84;2148546;41;20610;-77
2021/04/30 05:01:34;;;;;;;19.90;9.05;;;;;;;7.04;63.96;99473.09;2158972;41;20715;-78
2021/04/30 05:03:06;;;;;;;8.13;5.75;;;;;;;7.06;64.05;99480.97;2145685;41;20378;-76
2021/04/30 05:04:37;;;;;;;8.98;6.70;;;;;;;7.12;63.81;99467.97;2162750;41;20227;-78
2021/04/30 05:06:08;;;;;;;13.05;7.03;;;;;;;7.17;64.24;99480.84;2160315;41;20423;-77
2021/04/30 05:07:39;;;;;;;12.55;7.13;;;;;;;7.21;64.02;99466.28;2156647;41;20351;-77
2021/04/30 05:09:11;;;;;;;17.00;8.80;;;;;;;7.22;63.99;99467.97;2158670;41;20037;-78
2021/04/30 05:10:42;;;;;;;16.80;7.63;;;;;;;7.17;64.13;99465.72;2180599;40;20061;-77
2021/04/30 05:12:14;;;;;;;16.33;7.30;;;;;;;7.21;64.06;99460.16;2193166;40;20655;-77
2021/04/30 05:13:45;;;;;;;19.23;8.85;;;;;;;7.25;63.96;99462.41;2212661;40;20033;-78
2021/04/30 05:15:16;;;;;;;21.02;9.02;;;;;;;7.19;64.05;99470.91;2217411;40;20032;-77
2021/04/30 05:16:48;;;;;;;17.50;8.75;;;;;;;7.13;64.32;99474.13;2221740;40;20586;-77
2021/04/30 05:18:20;;;;;;;13.02;7.28;;;;;;;7.16;64.46;99463.22;2217762;40;20751;-78
2021/04/30 05:19:53;;;;;;;15.95;7.95;;;;;;;7.25;64.17;99464.19;2216258;40;20486;-76
2021/04/30 05:21:24;;;;;;;25.83;9.13;;;;;;;7.30;63.88;99468.13;2217463;40;20053;-78
2021/04/30 05:22:55;;;;;;;14.77;7.28;;;;;;;7.36;63.98;99469.41;2215161;40;20056;-78
2021/04/30 05:24:26;;;;;;;15.65;6.47;;;;;;;7.39;63.81;99474.44;2217953;40;20048;-77
2021/04/30 05:25:58;;;;;;;12.48;6.00;;;;;;;7.42;63.80;99468.00;2215762;40;20045;-77
2021/04/30 05:27:30;;;;;;;14.80;6.75;;;;;;;7.46;63.21;99470.25;2216985;40;20033;-77
2021/04/30 05:29:02;;;;;;;21.73;6.78;;;;;;;7.48;63.47;99472.75;2214680;40;20066;-76
2021/04/30 05:30:33;;;;;;;9.57;5.53;;;;;;;7.51;63.52;99475.16;2216253;40;20041;-77
2021/04/30 05:32:04;;;;;;;13.10;5.93;;;;;;;7.56;63.33;99485.38;2214805;40;20053;-77
2021/04/30 05:33:36;;;;;;;10.65;7.63;;;;;;;7.54;63.44;99482.88;2217349;40;20421;-76
2021/04/30 05:35:08;;;;;;;19.85;8.93;;;;;;;7.47;63.86;99487.03;2204073;40;20045;-76
2021/04/30 05:36:39;;;;;;;15.93;6.63;;;;;;;7.47;63.91;99481.72;2215095;40;20475;-77
2021/04/30 05:38:10;;;;;;;19.33;8.38;;;;;;;7.48;64.12;99478.06;2202654;40;20042;-76
2021/04/30 05:39:42;;;;;;;17.05;7.75;;;;;;;7.49;64.06;99475.31;2216378;40;20087;-76
2021/04/30 05:41:13;;;;;;;21.77;8.88;;;;;;;7.48;63.99;99473.63;2177520;40;25050;-77
2021/04/30 05:42:47;;;;;;;15.90;8.25;;;;;;;7.42;64.20;99471.50;2212667;40;20053;-77
2021/04/30 05:44:19;;;;;;;14.02;7.68;;;;;;;7.44;64.11;99469.53;2217707;40;20048;-77
2021/04/30 05:45:51;;;;;;;16.23;7.25;;;;;;;7.47;63.98;99471.06;2221592;40;20034;-77
2021/04/30 05:47:22;;;;;;;12.80;8.25;;;;;;;7.51;63.97;99477.81;2213916;40;20448;-78
2021/04/30 05:48:53;;;;;;;10.70;7.38;;;;;;;7.58;63.87;99472.78;2218408;40;20336;-76
2021/04/30 05:50:25;;;;;;;17.75;9.02;;;;;;;7.61;63.42;99470.69;2218056;40;20056;-77
2021/04/30 05:51:56;;;;;;;25.33;8.30;;;;;;;7.60;63.55;99465.50;2219651;40;20040;-76
2021/04/30 05:53:27;;;;;;;12.25;7.47;;;;;;;7.70;63.24;99468.97;2182519;40;20031;-77
2021/04/30 05:54:59;;;;;;;15.55;6.88;;;;;;;7.79;62.83;99469.97;2218013;40;20467;-76
2021/04/30 05:56:31;;;;;;;10.43;7.25;;;;;;;7.82;62.55;99456.41;2215927;40;20046;-77
2021/04/30 05:58:03;;;;;;;12.77;7.75;;;;;;;7.84;62.42;99453.59;2215825;40;20046;-76
2021/04/30 05:59:34;;;;;;;16.70;7.93;;;;;;;7.83;62.35;99454.56;2208926;40;20049;-77
2021/04/30 06:01:05;;;;;;;16.58;8.13;;;;;;;7.83;62.26;99449.22;2215520;40;20052;-76
2021/04/30 06:02:37;;;;;;;16.25;8.15;;;;;;;7.83;62.41;99454.56;2214878;40;20056;-76
2021/04/30 06:04:08;;;;;;;8.80;5.60;;;;;;;7.87;62.34;99448.81;2215693;40;20034;-77
2021/04/30 06:05:39;;;;;;;13.55;6.78;;;;;;;7.95;62.05;99443.63;2211548;40;20291;-78
2021/04/30 06:07:10;;;;;;;12.95;7.38;;;;;;;8.01;62.04;99441.38;2202674;40;20053;-77
2021/04/30 06:08:42;;;;;;;11.43;7.00;;;;;;;8.08;61.61;99443.31;2200489;40;20068;-77
2021/04/30 06:10:13;;;;;;;13.43;7.85;;;;;;;8.15;61.49;99448.91;2214603;40;20052;-76
2021/04/30 06:11:45;;;;;;;8.48;6.80;;;;;;;8.23;61.18;99453.50;2213965;40;20049;-77
2021/04/30 06:13:17;;;;;;;10.95;7.00;;;;;;;8.31;60.82;99452.81;2216181;40;20037;-77
2021/04/30 06:14:49;;;;;;;11.23;7.90;;;;;;;8.38;60.40;99451.22;2213073;40;20037;-77
2021/04/30 06:16:20;;;;;;;12.10;7.75;;;;;;;8.33;60.06;99446.34;2215526;40;20422;-77
2021/04/30 06:17:51;;;;;;;11.63;7.65;;;;;;;8.17;59.65;99435.47;2213711;40;20064;-77
2021/04/30 06:19:23;;;;;;;10.50;7.50;;;;;;;7.92;60.04;99427.94;2216058;40;20053;-77
2021/04/30 06:20:54;;;;;;;15.10;8.27;;;;;;;7.77;60.26;99427.56;2209698;40;20432;-77
2021/04/30 06:22:25;;;;;;;13.30;8.95;;;;;;;7.64;60.61;99435.81;2217005;40;20313;-77
2021/04/30 06:23:57;;;;;;;12.05;8.02;;;;;;;7.66;61.03;99433.00;2220772;40;20415;-77
2021/04/30 06:25:28;;;;;;;11.93;7.18;;;;;;;7.79;60.55;99430.88;2214057;40;20396;-77
2021/04/30 06:26:59;;;;;;;11.85;7.55;;;;;;;7.90;60.08;99416.59;2216548;40;20046;-77
2021/04/30 06:28:32;;;;;;;9.30;6.28;;;;;;;8.00;59.99;99418.41;2213042;40;20036;-77
2021/04/30 06:30:03;;;;;;;15.73;8.23;;;;;;;8.02;59.67;99417.28;2215867;40;20425;-77
2021/04/30 06:31:35;;;;;;;9.95;7.47;;;;;;;8.06;59.80;99431.13;2214472;40;20344;-77
2021/04/30 06:33:08;;;;;;;12.57;8.95;;;;;;;8.14;59.68;99431.25;2216718;40;20018;-77
2021/04/30 06:34:40;;;;;;;11.63;8.18;;;;;;;8.06;59.93;99418.66;2206276;40;20049;-77
2021/04/30 06:36:11;;;;;;;8.90;6.28;;;;;;;8.10;59.83;99425.38;2202176;40;20053;-76
2021/04/30 06:37:43;;;;;;;12.10;9.10;;;;;;;8.10;59.64;99417.38;2214204;40;20050;-77
2021/04/30 06:39:14;;;;;;;14.63;10.27;;;;;;;8.08;59.79;99421.19;2215498;40;20040;-77
2021/04/30 06:40:45;;;;;;;11.32;7.72;;;;;;;8.08;59.79;99416.69;2196456;40;20482;-77
2021/04/30 06:42:17;;;;;;;13.13;9.13;;;;;;;8.18;59.63;99419.34;2202878;40;20754;-77
2021/04/30 06:43:49;;;;;;;10.18;6.95;;;;;;;8.18;59.57;99421.13;2203183;40;20422;-77
2021/04/30 06:45:20;;;;;;;13.15;7.95;;;;;;;8.22;59.64;99418.03;2214829;40;20049;-77
2021/04/30 06:46:52;;;;;;;11.38;6.97;;;;;;;8.28;59.53;99427.28;2213350;40;20045;-77
2021/04/30 06:48:23;;;;;;;11.52;7.35;;;;;;;8.32;59.30;99425.16;2216090;40;20158;-77
2021/04/30 06:49:55;;;;;;;12.13;9.70;;;;;;;8.36;59.07;99424.72;2213844;40;20045;-77
2021/04/30 06:51:26;;;;;;;13.90;9.35;;;;;;;8.41;58.81;99432.28;2215414;40;20037;-76
2021/04/30 06:52:57;;;;;;;12.43;7.85;;;;;;;8.47;58.73;99426.41;2213508;40;20049;-77
2021/04/30 06:54:29;;;;;;;10.07;7.13;;;;;;;8.50;58.50;99420.78;2216248;40;20033;-78
2021/04/30 06:56:00;;;;;;;13.27;8.55;;;;;;;8.54;58.40;99414.19;2213724;39;20060;-77
2021/04/30 06:57:31;;;;;;;12.57;8.27;;;;;;;8.52;58.29;99416.16;2213702;40;20048;-77
2021/04/30 06:59:04;;;;;;;13.38;8.50;;;;;;;8.47;58.29;99415.75;2212427;40;20453;-76
2021/04/30 07:00:36;;;;;;;11.20;8.25;;;;;;;8.40;58.52;99423.47;2216004;40;20036;-77
2021/04/30 07:02:07;;;;;;;11.07;7.22;;;;;;;8.49;58.54;99420.94;2214548;40;20061;-77
2021/04/30 07:03:40;;;;;;;9.45;6.47;;;;;;;8.60;58.20;99422.59;2216693;40;20029;-77
2021/04/30 07:05:12;;;;;;;11.18;7.57;;;;;;;8.69;57.67;99429.69;2214306;40;20064;-77
2021/04/30 07:06:44;;;;;;;12.02;8.07;;;;;;;8.80;57.33;99423.31;2216145;40;20030;-76
2021/04/30 07:08:15;;;;;;;10.35;6.65;;;;;;;8.90;56.96;99427.59;2214326;40;20053;-77
2021/04/30 07:09:48;;;;;;;9.45;6.38;;;;;;;9.01;56.58;99431.06;2216765;40;20033;-77
2021/04/30 07:11:19;;;;;;;13.63;6.80;;;;;;;9.08;56.33;99424.13;2216043;40;20044;-77
2021/04/30 07:12:50;;;;;;;9.73;7.38;;;;;;;9.13;56.19;99423.66;2216087;40;20057;-77
2021/04/30 07:14:23;;;;;;;11.52;8.10;;;;;;;9.12;56.24;99411.31;2209353;40;20033;-76